createdAt,value
2023-03-25T00:00:16.870Z,79.26
2023-03-25T00:03:57.732Z,79.08
2023-03-25T00:07:03.298Z,79.19
2023-03-25T00:10:32.388Z,78.82
2023-03-25T00:13:45.506Z,78.52
2023-03-25T00:17:03.232Z,78.27
2023-03-25T00:20:16.156Z,78.06
2023-03-25T00:23:21.938Z,77.90
2023-03-25T00:26:41.592Z,77.50
2023-03-25T00:29:46.931Z,77.31
2023-03-25T00:32:53.473Z,77.26
2023-03-25T00:36:12.084Z,77.05
2023-03-25T00:39:24.057Z,76.99
2023-03-25T00:42:50.562Z,76.77
2023-03-25T00:45:52.258Z,76.50
2023-03-25T00:49:07.631Z,76.52
2023-03-25T00:52:32.234Z,76.35
2023-03-25T00:55:42.689Z,76.14
2023-03-25T00:58:50.188Z,76.24
2023-03-25T01:02:02.878Z,76.34
2023-03-25T01:05:14.179Z,76.43
2023-03-25T01:08:07.954Z,76.46
2023-03-25T01:11:44.436Z,76.34
2023-03-25T01:15:02.191Z,76.14
2023-03-25T01:18:09.767Z,76.15
2023-03-25T01:21:34.347Z,76.01
2023-03-25T01:24:50.244Z,75.91
2023-03-25T01:28:14.127Z,75.91
2023-03-25T01:31:23.206Z,76.02
2023-03-25T01:34:43.747Z,75.95
2023-03-25T01:38:21.269Z,75.88
2023-03-25T01:41:39.136Z,75.86
2023-03-25T01:45:06.443Z,75.92
2023-03-25T01:48:53.356Z,75.85
2023-03-25T01:52:15.701Z,76.11
2023-03-25T01:55:49.131Z,76.19
2023-03-25T01:59:14.719Z,76.49
2023-03-25T02:02:36.885Z,76.91
2023-03-25T02:06:20.497Z,76.88
2023-03-25T02:09:53.899Z,77.11
2023-03-25T02:13:42.946Z,77.74
2023-03-25T02:17:23.049Z,78.06
2023-03-25T02:44:03.127Z,79.37
2023-03-25T02:47:34.665Z,79.75
2023-03-25T02:51:29.494Z,80.04
2023-03-25T02:55:11.584Z,80.33
2023-03-25T02:58:43.756Z,80.63
2023-03-25T03:02:01.273Z,80.68
2023-03-25T03:06:11.634Z,80.45
2023-03-25T03:10:03.588Z,80.23
2023-03-25T03:14:08.327Z,80.44
2023-03-25T03:33:24.721Z,82.19
2023-03-25T03:36:34.776Z,82.07
2023-03-25T03:40:09.818Z,81.96
2023-03-25T03:43:43.933Z,82.11
2023-03-25T03:47:02.800Z,82.28
2023-03-25T03:50:53.155Z,82.52
2023-03-25T03:54:35.091Z,82.60
2023-03-25T03:58:07.733Z,83.02
2023-03-25T04:02:09.062Z,83.05
2023-03-25T04:05:39.049Z,83.10
2023-03-25T04:09:12.007Z,82.44
2023-03-25T04:23:41.004Z,83.20
2023-03-25T04:27:21.978Z,83.34
2023-03-25T04:34:32.676Z,83.15
2023-03-25T04:38:26.148Z,83.08
2023-03-25T04:41:29.077Z,83.35
2023-03-25T04:45:07.642Z,83.14
2023-03-25T04:48:41.263Z,83.54
2023-03-25T04:51:54.345Z,83.44
2023-03-25T04:55:26.251Z,83.22
2023-03-25T04:58:49.309Z,83.19
2023-03-25T05:02:12.862Z,82.63
2023-03-25T05:05:20.196Z,82.81
2023-03-25T05:09:03.194Z,82.98
2023-03-25T05:12:37.271Z,83.17
2023-03-25T05:15:54.003Z,83.42
2023-03-25T05:19:28.952Z,83.64
2023-03-25T05:22:41.170Z,83.39
2023-03-25T05:25:56.948Z,83.17
2023-03-25T05:29:17.138Z,83.08
2023-03-25T05:32:41.531Z,82.92
2023-03-25T05:36:11.820Z,82.81
2023-03-25T05:39:36.502Z,82.48
2023-03-25T05:42:45.611Z,82.54
2023-03-25T05:45:59.215Z,82.30
2023-03-25T05:49:01.593Z,82.28
2023-03-25T05:51:43.794Z,82.27
2023-03-25T05:54:45.778Z,82.22
2023-03-25T05:57:39.944Z,82.15
2023-03-25T06:00:38.735Z,82.47
2023-03-25T06:03:40.164Z,82.85
2023-03-25T06:06:30.756Z,82.60
2023-03-25T06:09:43.748Z,82.83
2023-03-25T06:12:44.033Z,82.79
2023-03-25T06:15:40.839Z,82.91
2023-03-25T06:18:39.150Z,82.83
2023-03-25T06:21:33.544Z,82.84
2023-03-25T06:24:23.832Z,82.77
2023-03-25T06:27:07.379Z,82.80
2023-03-25T06:30:05.537Z,82.74
2023-03-25T06:33:03.393Z,82.81
2023-03-25T06:35:55.415Z,82.78
2023-03-25T06:38:55.558Z,82.70
2023-03-25T06:41:41.449Z,82.57
2023-03-25T06:44:33.685Z,82.36
2023-03-25T06:47:44.326Z,82.10
2023-03-25T06:50:25.525Z,82.10
2023-03-25T06:53:15.323Z,82.08
2023-03-25T06:56:12.677Z,82.00
2023-03-25T06:58:52.097Z,82.21
2023-03-25T07:01:44.934Z,82.22
2023-03-25T07:04:23.870Z,81.93
2023-03-25T07:07:10.885Z,81.79
2023-03-25T07:09:51.140Z,81.30
2023-03-25T07:12:31.762Z,81.08
2023-03-25T07:15:14.837Z,81.18
2023-03-25T07:18:00.653Z,81.13
2023-03-25T07:20:34.828Z,81.18
2023-03-25T07:23:11.089Z,81.06
2023-03-25T07:25:45.302Z,81.08
2023-03-25T07:28:34.568Z,80.82
2023-03-25T07:31:17.101Z,80.85
2023-03-25T07:33:49.039Z,81.09
2023-03-25T07:36:34.414Z,80.92
2023-03-25T07:39:06.170Z,81.22
2023-03-25T07:41:55.336Z,81.22
2023-03-25T07:44:53.103Z,81.04
2023-03-25T07:47:30.561Z,80.68
2023-03-25T07:50:27.545Z,80.28
2023-03-25T07:53:15.780Z,79.58
2023-03-25T07:56:12.930Z,79.47
2023-03-25T07:59:09.948Z,79.39
2023-03-25T08:02:04.909Z,79.16
2023-03-25T08:04:50.254Z,78.76
2023-03-25T08:07:44.641Z,78.46
2023-03-25T08:10:47.833Z,78.38
2023-03-25T08:13:48.054Z,78.36
2023-03-25T08:16:33.989Z,78.24
2023-03-25T08:19:22.697Z,77.37
2023-03-25T08:22:36.547Z,75.60
2023-03-25T08:25:16.091Z,74.72
2023-03-25T08:28:06.361Z,74.49
2023-03-25T08:30:50.022Z,73.85
2023-03-25T08:33:48.788Z,73.62
2023-03-25T08:36:36.928Z,73.79
2023-03-25T08:39:30.647Z,73.81
2023-03-25T08:42:16.996Z,73.67
2023-03-25T08:45:16.610Z,73.34
2023-03-25T08:47:51.206Z,73.56
2023-03-25T08:50:47.261Z,73.29
2023-03-25T08:53:29.661Z,73.08
2023-03-25T08:56:18.831Z,72.54
2023-03-25T08:58:56.114Z,71.88
2023-03-25T09:01:45.025Z,71.68
2023-03-25T09:04:25.634Z,71.08
2023-03-25T09:07:14.388Z,70.42
2023-03-25T09:09:51.985Z,70.19
2023-03-25T09:12:37.563Z,69.15
2023-03-25T09:15:22.737Z,68.53
2023-03-25T09:18:05.301Z,68.48
2023-03-25T09:20:41.425Z,68.27
2023-03-25T09:23:23.191Z,68.00
2023-03-25T09:25:57.613Z,68.09
2023-03-25T09:28:40.630Z,67.66
2023-03-25T09:31:20.706Z,67.65
2023-03-25T09:34:09.364Z,67.36
2023-03-25T09:36:54.499Z,67.65
2023-03-25T09:39:35.379Z,67.76
2023-03-25T09:42:50.850Z,68.37
2023-03-25T09:45:57.525Z,69.39
2023-03-25T09:48:50.102Z,69.98
2023-03-25T09:51:45.581Z,70.65
2023-03-25T09:54:27.823Z,70.21
2023-03-25T09:57:11.826Z,69.68
2023-03-25T09:59:49.933Z,69.55
2023-03-25T10:02:43.296Z,69.09
2023-03-25T10:05:53.761Z,67.96
2023-03-25T10:08:53.481Z,67.46
2023-03-25T10:11:37.215Z,67.60
2023-03-25T10:14:28.421Z,67.44
2023-03-25T10:17:37.366Z,67.37
2023-03-25T10:20:38.906Z,67.51
2023-03-25T10:23:27.063Z,67.28
2023-03-25T10:26:20.918Z,67.29
2023-03-25T10:29:05.176Z,66.88
2023-03-25T10:31:43.782Z,66.81
2023-03-25T10:34:21.424Z,65.92
2023-03-25T10:36:58.297Z,65.21
2023-03-25T10:39:34.410Z,65.19
2023-03-25T10:42:44.570Z,65.38
2023-03-25T10:45:18.791Z,64.61
2023-03-25T10:47:51.735Z,63.27
2023-03-25T10:50:23.269Z,62.93
2023-03-25T10:52:56.933Z,61.21
2023-03-25T10:55:29.013Z,59.37
2023-03-25T10:57:57.981Z,58.31
2023-03-25T11:00:34.443Z,57.47
2023-03-25T11:03:05.571Z,55.76
2023-03-25T11:05:34.368Z,55.85
2023-03-25T11:08:18.154Z,56.24
2023-03-25T11:10:57.752Z,53.74
2023-03-25T11:13:30.758Z,54.28
2023-03-25T11:16:02.562Z,54.04
2023-03-25T11:18:35.265Z,53.49
2023-03-25T11:21:08.661Z,52.32
2023-03-25T11:23:38.481Z,51.02
2023-03-25T11:26:13.115Z,50.98
2023-03-25T11:28:44.365Z,49.26
2023-03-25T11:31:16.483Z,50.14
2023-03-25T11:33:47.047Z,49.86
2023-03-25T11:36:25.661Z,50.60
2023-03-25T11:39:01.007Z,51.26
2023-03-25T11:41:33.972Z,50.47
2023-03-25T11:44:03.963Z,49.35
2023-03-25T11:46:32.305Z,49.60
2023-03-25T11:49:14.772Z,49.10
2023-03-25T11:51:45.403Z,47.65
2023-03-25T11:54:17.468Z,47.20
2023-03-25T11:56:49.363Z,47.74
2023-03-25T11:59:29.148Z,47.91
2023-03-25T12:02:17.227Z,47.69
2023-03-25T12:05:04.734Z,48.63
2023-03-25T12:07:48.920Z,49.69
2023-03-25T12:10:21.255Z,50.23
2023-03-25T12:13:32.134Z,50.21
2023-03-25T12:16:24.725Z,51.63
2023-03-25T12:19:20.079Z,53.65
2023-03-25T12:22:05.045Z,54.46
2023-03-25T12:25:14.591Z,55.24
2023-03-25T12:28:10.304Z,54.14
2023-03-25T12:31:13.715Z,53.42
2023-03-25T12:33:57.577Z,53.75
2023-03-25T12:37:14.047Z,53.89
2023-03-25T12:40:10.073Z,54.70
2023-03-25T12:42:52.682Z,54.39
2023-03-25T12:46:08.429Z,53.65
2023-03-25T12:49:41.563Z,54.05
2023-03-25T12:52:41.583Z,54.47
2023-03-25T12:55:32.281Z,54.92
2023-03-25T12:58:20.025Z,55.18
2023-03-25T13:01:36.412Z,55.44
2023-03-25T13:04:18.105Z,56.05
2023-03-25T13:06:59.074Z,55.70
2023-03-25T13:09:52.332Z,55.14
2023-03-25T13:12:49.898Z,55.18
2023-03-25T13:15:41.313Z,55.86
2023-03-25T13:18:20.806Z,56.26
2023-03-25T13:21:00.637Z,55.96
2023-03-25T13:23:40.035Z,56.06
2023-03-25T13:26:29.703Z,55.99
2023-03-25T13:29:03.916Z,56.24
2023-03-25T13:31:50.951Z,56.60
2023-03-25T13:34:36.514Z,57.05
2023-03-25T13:37:38.893Z,56.78
2023-03-25T13:40:33.885Z,57.18
2023-03-25T13:43:31.865Z,56.65
2023-03-25T13:46:10.164Z,56.01
2023-03-25T13:48:47.762Z,55.01
2023-03-25T13:51:16.753Z,54.27
2023-03-25T13:53:56.496Z,54.35
2023-03-25T13:56:34.308Z,54.62
2023-03-25T13:59:19.466Z,54.43
2023-03-25T14:02:18.361Z,54.43
2023-03-25T14:05:26.094Z,53.89
2023-03-25T14:08:01.878Z,54.43
2023-03-25T14:11:00.096Z,54.17
2023-03-25T14:13:36.150Z,53.96
2023-03-25T14:16:14.701Z,53.56
2023-03-25T14:19:14.187Z,53.88
2023-03-25T14:21:50.934Z,54.14
2023-03-25T14:24:32.393Z,54.40
2023-03-25T14:27:07.048Z,54.71
2023-03-25T14:29:48.532Z,54.70
2023-03-25T14:32:33.752Z,54.26
2023-03-25T14:35:36.708Z,54.90
2023-03-25T14:38:18.592Z,55.76
2023-03-25T14:41:03.406Z,56.46
2023-03-25T14:43:53.334Z,56.45
2023-03-25T14:46:23.721Z,55.77
2023-03-25T14:49:06.052Z,55.38
2023-03-25T14:51:42.725Z,54.89
2023-03-25T14:54:17.140Z,54.70
2023-03-25T14:57:05.923Z,54.01
2023-03-25T15:00:01.649Z,53.73
2023-03-25T15:02:33.912Z,52.99
2023-03-25T15:05:13.976Z,52.18
2023-03-25T15:07:48.765Z,51.51
2023-03-25T15:10:33.089Z,51.73
2023-03-25T15:13:06.611Z,52.03
2023-03-25T15:16:00.026Z,52.06
2023-03-25T15:18:37.666Z,51.83
2023-03-25T15:21:09.125Z,51.16
2023-03-25T15:23:43.757Z,51.08
2023-03-25T15:26:44.782Z,50.57
2023-03-25T15:29:31.793Z,50.37
2023-03-25T15:32:18.823Z,51.07
2023-03-25T15:35:23.144Z,51.44
2023-03-25T15:38:39.636Z,52.04
2023-03-25T15:41:31.151Z,53.11
2023-03-25T15:44:41.722Z,53.36
2023-03-25T15:47:31.401Z,53.51
2023-03-25T15:50:44.213Z,53.84
2023-03-25T15:54:00.314Z,53.20
2023-03-25T15:56:38.069Z,52.80
2023-03-25T15:59:38.841Z,52.88
2023-03-25T16:02:37.822Z,52.80
2023-03-25T16:05:16.146Z,53.08
2023-03-25T16:07:50.314Z,53.49
2023-03-25T16:10:39.831Z,54.24
2023-03-25T16:13:24.148Z,54.66
2023-03-25T16:16:15.149Z,54.99
2023-03-25T16:18:57.390Z,55.29
2023-03-25T16:21:42.871Z,55.65
2023-03-25T16:24:37.774Z,56.10
2023-03-25T16:27:50.178Z,56.50
2023-03-25T16:30:54.358Z,56.86
2023-03-25T16:33:47.856Z,57.12
2023-03-25T16:36:47.362Z,57.08
2023-03-25T16:39:28.436Z,57.08
2023-03-25T16:42:38.182Z,57.30
2023-03-25T16:45:20.496Z,57.49
2023-03-25T16:48:37.091Z,57.56
2023-03-25T16:51:37.113Z,57.56
2023-03-25T16:55:00.856Z,57.48
2023-03-25T16:58:03.360Z,57.51
2023-03-25T17:01:11.958Z,57.66
2023-03-25T17:04:09.337Z,57.69
2023-03-25T17:07:22.364Z,57.87
2023-03-25T17:10:33.339Z,57.75
2023-03-25T17:13:45.746Z,58.10
2023-03-25T17:16:33.490Z,58.05
2023-03-25T17:19:32.070Z,58.10
2023-03-25T17:22:28.702Z,58.20
2023-03-25T17:25:32.615Z,58.28
2023-03-25T17:29:00.306Z,58.62
2023-03-25T17:31:49.388Z,58.73
2023-03-25T17:34:43.058Z,58.99
2023-03-25T17:37:51.770Z,59.13
2023-03-25T17:40:42.843Z,59.41
2023-03-25T17:43:29.859Z,59.65
2023-03-25T17:46:13.275Z,60.09
2023-03-25T17:49:00.821Z,60.26
2023-03-25T17:51:50.794Z,60.47
2023-03-25T17:54:52.571Z,60.76
2023-03-25T17:57:50.830Z,61.07
2023-03-25T18:00:43.067Z,61.53
2023-03-25T18:03:31.515Z,61.52
2023-03-25T18:06:42.797Z,61.77
2023-03-25T18:09:34.215Z,62.54
2023-03-25T18:12:47.651Z,63.32
2023-03-25T18:15:55.636Z,64.24
2023-03-25T18:18:43.294Z,65.05
2023-03-25T18:22:10.026Z,65.63
2023-03-25T18:25:31.039Z,66.03
2023-03-25T18:28:29.621Z,66.37
2023-03-25T18:31:33.564Z,66.51
2023-03-25T18:34:45.018Z,67.26
2023-03-25T18:37:45.244Z,67.54
2023-03-25T18:40:57.656Z,67.82
2023-03-25T18:43:38.010Z,67.91
2023-03-25T18:46:38.238Z,67.81
2023-03-25T18:49:46.343Z,67.96
2023-03-25T18:53:05.217Z,68.10
2023-03-25T18:56:29.857Z,68.23
2023-03-25T18:59:35.653Z,67.81
2023-03-25T19:02:49.862Z,68.13
2023-03-25T19:05:57.094Z,67.76
2023-03-25T19:09:09.481Z,67.98
2023-03-25T19:12:24.063Z,67.94
2023-03-25T19:15:33.904Z,67.94
2023-03-25T19:18:49.896Z,67.89
2023-03-25T19:22:03.644Z,67.77
2023-03-25T19:25:13.492Z,67.68
2023-03-25T19:28:28.552Z,67.99
2023-03-25T19:31:51.823Z,68.10
2023-03-25T19:35:08.738Z,68.15
2023-03-25T19:38:26.989Z,68.50
2023-03-25T19:41:42.918Z,68.51
2023-03-25T19:44:44.325Z,68.41
2023-03-25T19:47:47.965Z,68.45
2023-03-25T19:50:53.240Z,68.31
2023-03-25T19:53:38.951Z,68.49
2023-03-25T19:56:47.166Z,68.55
2023-03-25T19:59:45.335Z,68.52
2023-03-25T20:02:40.124Z,68.42
2023-03-25T20:05:51.652Z,68.32
2023-03-25T20:08:43.447Z,68.01
2023-03-25T20:11:54.120Z,67.98
2023-03-25T20:15:11.954Z,67.83
2023-03-25T20:18:15.857Z,67.84
2023-03-25T20:21:27.454Z,67.79
2023-03-25T20:24:25.016Z,67.67
2023-03-25T20:27:36.126Z,67.64
2023-03-25T20:30:45.440Z,67.51
2023-03-25T20:33:50.928Z,67.42
2023-03-25T20:36:51.407Z,67.36
2023-03-25T20:39:51.629Z,67.51
2023-03-25T20:42:52.877Z,67.55
2023-03-25T20:45:47.263Z,67.27
2023-03-25T20:48:55.378Z,67.51
2023-03-25T20:52:11.568Z,67.76
2023-03-25T20:55:13.225Z,68.10
2023-03-25T20:58:12.939Z,68.26
2023-03-25T21:01:25.191Z,68.26
2023-03-25T21:04:27.414Z,68.35
2023-03-25T21:07:19.467Z,68.25
2023-03-25T21:10:28.779Z,68.21
2023-03-25T21:13:29.313Z,68.24
2023-03-25T21:16:26.404Z,68.19
2023-03-25T21:19:16.147Z,68.24
2023-03-25T21:22:33.258Z,68.16
2023-03-25T21:25:10.476Z,68.00
2023-03-25T21:27:59.401Z,67.68
2023-03-25T21:31:04.641Z,67.59
2023-03-25T21:33:52.648Z,67.48
2023-03-25T21:36:47.066Z,67.26
2023-03-25T21:39:47.608Z,67.40
2023-03-25T21:42:18.740Z,66.99
2023-03-25T21:45:21.828Z,67.03
2023-03-25T21:48:18.473Z,67.12
2023-03-25T21:51:42.776Z,66.96
2023-03-25T21:54:34.476Z,66.88
2023-03-25T21:57:30.774Z,67.24
2023-03-25T22:00:37.584Z,67.09
2023-03-25T22:03:45.642Z,67.30
2023-03-25T22:06:44.889Z,67.29
2023-03-25T22:09:42.757Z,67.26
2023-03-25T22:12:48.408Z,67.09
2023-03-25T22:15:46.069Z,67.25
2023-03-25T22:18:52.233Z,67.20
2023-03-25T22:21:47.131Z,67.28
2023-03-25T22:25:08.345Z,67.38
2023-03-25T22:28:00.680Z,67.53
2023-03-25T22:31:01.649Z,67.56
2023-03-25T22:34:23.896Z,68.09
2023-03-25T22:37:36.904Z,68.03
2023-03-25T22:40:35.673Z,68.10
2023-03-25T22:43:46.238Z,68.13
2023-03-25T22:46:45.899Z,68.20
2023-03-25T22:49:50.473Z,68.35
2023-03-25T22:52:47.009Z,68.15
2023-03-25T22:55:30.236Z,68.33
2023-03-25T22:58:31.174Z,68.29
2023-03-25T23:01:36.848Z,68.41
2023-03-25T23:04:39.488Z,68.21
2023-03-25T23:07:41.279Z,68.14
2023-03-25T23:10:47.952Z,68.35
2023-03-25T23:13:52.613Z,68.28
2023-03-25T23:17:07.865Z,68.31
2023-03-25T23:20:06.028Z,68.18
2023-03-25T23:23:06.053Z,68.42
2023-03-25T23:26:39.482Z,68.61
2023-03-25T23:29:50.734Z,68.55
2023-03-25T23:32:47.702Z,68.38
2023-03-25T23:36:00.579Z,68.28
2023-03-25T23:38:58.884Z,68.72
2023-03-25T23:42:05.656Z,68.79
2023-03-25T23:45:07.721Z,68.79
2023-03-25T23:48:14.084Z,68.81
2023-03-25T23:51:34.137Z,68.94
2023-03-25T23:54:54.367Z,69.08
2023-03-25T23:58:01.337Z,69.61
